createdAt,value
2022-10-20T00:04:31.603Z,44.4279
2022-10-20T00:09:33.289Z,46.2534
2022-10-20T00:14:35.230Z,39.8908
2022-10-20T00:19:37.380Z,34.45045
2022-10-20T00:24:39.074Z,30.8356
2022-10-20T00:29:41.132Z,22.5182
2022-10-20T00:34:42.854Z,17.8708
2022-10-20T00:39:44.775Z,11.69265
2022-10-20T00:44:46.479Z,10.58595
2022-10-20T00:49:48.482Z,7.89335
2022-10-20T00:54:50.815Z,4.22335
2022-10-20T00:59:52.548Z,2.13325
2022-10-20T01:04:54.494Z,1.3629
2022-10-20T01:09:56.634Z,0.47405
2022-10-20T01:14:58.654Z,0
2022-10-20T01:20:00.472Z,0
2022-10-20T01:25:02.405Z,0
2022-10-20T01:30:04.465Z,0
2022-10-20T01:35:06.137Z,0
2022-10-20T01:40:08.055Z,0
2022-10-20T01:45:09.805Z,0
2022-10-20T01:50:11.398Z,0
2022-10-20T01:55:13.141Z,0
2022-10-20T02:00:14.771Z,0
2022-10-20T02:05:16.396Z,0
2022-10-20T02:10:18.049Z,0
2022-10-20T02:15:19.698Z,0
2022-10-20T02:20:21.331Z,0
2022-10-20T02:25:22.996Z,0
2022-10-20T02:30:24.651Z,0
2022-10-20T02:35:26.281Z,0
2022-10-20T02:40:27.880Z,0
2022-10-20T02:45:29.528Z,0
2022-10-20T02:50:31.174Z,0
2022-10-20T02:55:32.772Z,0
2022-10-20T03:00:34.411Z,0
2022-10-20T03:05:36.192Z,0
2022-10-20T03:10:37.824Z,0
2022-10-20T03:15:39.442Z,0
2022-10-20T03:20:41.049Z,0
2022-10-20T03:25:42.803Z,0
2022-10-20T03:30:44.405Z,0
2022-10-20T03:35:46.905Z,0
2022-10-20T03:40:48.729Z,0
2022-10-20T03:45:50.378Z,0
2022-10-20T03:50:52.022Z,0
2022-10-20T03:55:53.670Z,0
2022-10-20T04:00:55.269Z,0
2022-10-20T04:05:56.776Z,0
2022-10-20T04:10:58.393Z,0
2022-10-20T04:16:00.003Z,0
2022-10-20T04:21:01.650Z,0
2022-10-20T04:26:03.381Z,0
2022-10-20T04:31:04.998Z,0
2022-10-20T04:36:06.602Z,0
2022-10-20T04:41:08.263Z,0
2022-10-20T04:46:09.886Z,0
2022-10-20T04:51:11.484Z,0
2022-10-20T04:56:13.229Z,0
2022-10-20T05:01:14.986Z,0
2022-10-20T05:06:16.721Z,0
2022-10-20T05:11:18.344Z,0
2022-10-20T05:16:20.059Z,0
2022-10-20T05:21:21.777Z,0
2022-10-20T05:26:23.358Z,0
2022-10-20T05:31:25.118Z,0
2022-10-20T05:36:26.772Z,0
2022-10-20T05:41:28.379Z,0
2022-10-20T05:46:29.989Z,0
2022-10-20T05:51:31.618Z,0
2022-10-20T05:56:33.208Z,0
2022-10-20T06:01:34.805Z,0
2022-10-20T06:06:36.437Z,0
2022-10-20T06:11:39.501Z,0
2022-10-20T06:16:41.447Z,0
2022-10-20T06:26:44.886Z,0
2022-10-20T06:31:46.483Z,0
2022-10-20T06:36:48.104Z,0
2022-10-20T06:41:49.748Z,0
2022-10-20T06:46:51.378Z,0
2022-10-20T06:51:53.198Z,0
2022-10-20T06:56:54.775Z,0
2022-10-20T07:01:56.398Z,0
2022-10-20T07:06:58.041Z,0
2022-10-20T07:11:59.644Z,0
2022-10-20T07:17:01.282Z,0
2022-10-20T07:22:03.036Z,0
2022-10-20T07:27:04.673Z,0
2022-10-20T07:32:06.275Z,0
2022-10-20T07:37:07.976Z,0
2022-10-20T07:42:09.687Z,0
2022-10-20T07:47:11.336Z,0
2022-10-20T07:52:12.956Z,0
2022-10-20T07:57:14.611Z,0
2022-10-20T08:02:16.295Z,0
2022-10-20T08:07:17.983Z,0
2022-10-20T08:12:19.700Z,0
2022-10-20T08:17:22.128Z,0
2022-10-20T08:22:23.835Z,0
2022-10-20T08:27:25.503Z,0
2022-10-20T08:32:27.094Z,0
2022-10-20T08:37:28.691Z,0
2022-10-20T08:42:30.289Z,0
2022-10-20T08:47:33.440Z,0
2022-10-20T08:52:35.438Z,0
2022-10-20T08:57:37.116Z,0
2022-10-20T09:02:38.827Z,0
2022-10-20T09:07:40.580Z,0
2022-10-20T09:12:42.201Z,0
2022-10-20T09:17:43.843Z,0
2022-10-20T09:22:45.434Z,0
2022-10-20T09:27:47.036Z,0
2022-10-20T09:32:48.884Z,0
2022-10-20T09:37:50.602Z,0
2022-10-20T09:42:52.267Z,0
2022-10-20T09:47:53.987Z,0
2022-10-20T09:52:55.581Z,0
2022-10-20T09:57:57.281Z,0
2022-10-20T10:02:59.018Z,0
2022-10-20T10:08:00.629Z,0
2022-10-20T10:13:02.339Z,0
2022-10-20T10:18:04.006Z,0
2022-10-20T10:23:05.611Z,0
2022-10-20T10:28:07.444Z,0
2022-10-20T10:33:09.051Z,0
2022-10-20T10:38:10.650Z,0
2022-10-20T10:43:12.326Z,0
2022-10-20T10:48:14.112Z,0
2022-10-20T10:53:15.732Z,0
2022-10-20T10:58:17.380Z,0
2022-10-20T11:03:19.079Z,0
2022-10-20T11:08:20.689Z,0
2022-10-20T11:13:24.558Z,0
2022-10-20T11:18:28.621Z,0
2022-10-20T11:23:30.263Z,0
2022-10-20T11:28:31.950Z,0
2022-10-20T11:33:35.723Z,0
2022-10-20T11:38:39.644Z,0
2022-10-20T11:43:41.373Z,0
2022-10-20T11:48:42.954Z,0
2022-10-20T11:53:44.860Z,0
2022-10-20T11:58:46.518Z,0
2022-10-20T12:03:48.146Z,0
2022-10-20T12:08:49.787Z,0
2022-10-20T12:13:51.442Z,0
2022-10-20T12:18:53.155Z,0
2022-10-20T12:23:54.849Z,0
2022-10-20T12:28:56.442Z,0
2022-10-20T12:33:58.086Z,0
2022-10-20T12:38:59.734Z,0
2022-10-20T12:44:01.349Z,0
2022-10-20T12:49:05.535Z,0
2022-10-20T12:54:10.062Z,0
2022-10-20T12:59:11.667Z,0
2022-10-20T13:04:13.353Z,0
2022-10-20T13:09:14.988Z,0
2022-10-20T13:14:16.618Z,0
2022-10-20T13:19:18.232Z,0
2022-10-20T13:24:19.874Z,0
2022-10-20T13:29:21.522Z,0
2022-10-20T13:34:23.158Z,0
2022-10-20T13:39:24.878Z,0
2022-10-20T13:44:31.196Z,0
2022-10-20T13:49:33.899Z,0
2022-10-20T13:54:35.499Z,0
2022-10-20T13:59:38.626Z,0
2022-10-20T14:04:42.326Z,0.4148
2022-10-20T14:09:47.451Z,0.88885
2022-10-20T14:14:51.056Z,1.2444
2022-10-20T14:19:52.631Z,5.0163
2022-10-20T14:24:54.238Z,7.52445
2022-10-20T14:29:55.982Z,8.0778
2022-10-20T14:39:58.176Z,21.45105
2022-10-20T14:44:59.856Z,34.66535
2022-10-20T14:50:01.611Z,41.59845
2022-10-20T14:55:03.272Z,44.85765
2022-10-20T15:00:05.134Z,53.33145
2022-10-20T15:05:06.810Z,71.93815
2022-10-20T15:10:08.407Z,88.11525
2022-10-20T15:15:10.165Z,82.90075
2022-10-20T15:20:11.853Z,114.6622
2022-10-20T15:25:13.692Z,170.4824
2022-10-20T15:30:15.280Z,220.25775
2022-10-20T15:35:16.933Z,131.96445
2022-10-20T15:40:18.559Z,66.6051
2022-10-20T15:45:20.130Z,95.9372
2022-10-20T15:50:24.225Z,47.8798
2022-10-20T15:55:26.686Z,44.6207
2022-10-20T16:00:28.278Z,45.6873
2022-10-20T16:05:29.886Z,45.391
2022-10-20T16:10:31.606Z,42.48745
2022-10-20T16:15:33.240Z,42.84295
2022-10-20T16:20:34.865Z,50.0723
2022-10-20T16:25:36.431Z,57.8943
2022-10-20T16:30:38.026Z,51.5538
2022-10-20T16:35:39.701Z,54.3389
2022-10-20T16:40:41.454Z,52.2649
2022-10-20T16:45:43.141Z,49.8946
2022-10-20T16:50:44.813Z,61.33125
2022-10-20T16:55:46.542Z,53.21305
2022-10-20T17:00:48.190Z,45.98365
2022-10-20T17:05:49.858Z,42.0727
2022-10-20T17:10:51.509Z,49.77615
2022-10-20T17:15:53.128Z,49.06505
2022-10-20T17:20:54.733Z,56.53145
2022-10-20T17:25:56.346Z,68.32365
2022-10-20T17:30:57.971Z,57.53885
2022-10-20T17:35:59.564Z,56.7092
2022-10-20T17:41:01.232Z,59.25735
2022-10-20T17:46:02.850Z,55.2278
2022-10-20T17:51:04.536Z,56.1167
2022-10-20T17:56:06.173Z,61.0943
2022-10-20T18:01:07.816Z,58.6055
2022-10-20T18:06:09.515Z,60.50175
2022-10-20T18:11:11.142Z,51.90945
2022-10-20T18:16:12.748Z,54.81305
2022-10-20T18:21:14.341Z,60.62025
2022-10-20T18:26:15.934Z,63.52385
2022-10-20T18:31:17.555Z,66.84225
2022-10-20T18:36:19.217Z,70.63475
2022-10-20T18:41:20.900Z,84.7972
2022-10-20T18:46:22.558Z,140.26205
2022-10-20T18:51:24.190Z,127.344
2022-10-20T18:56:25.885Z,80.59
2022-10-20T19:01:27.643Z,81.5381
2022-10-20T19:06:29.336Z,108.02605
2022-10-20T19:11:31.072Z,155.19485
2022-10-20T19:16:32.692Z,198.63045
2022-10-20T19:21:34.399Z,190.09745
2022-10-20T19:26:36.009Z,224.3481
2022-10-20T19:31:37.608Z,233.11815
2022-10-20T19:36:39.246Z,353.7653
2022-10-20T19:41:40.867Z,186.60135
2022-10-20T19:46:42.493Z,288.8792
2022-10-20T19:51:44.150Z,637.5474
2022-10-20T19:56:45.828Z,228.6147
2022-10-20T20:01:47.446Z,182.0977
2022-10-20T20:06:49.177Z,203.4303
2022-10-20T20:11:50.847Z,191.4603
2022-10-20T20:16:52.455Z,400.8747
2022-10-20T20:21:54.094Z,281.472
2022-10-20T20:26:55.759Z,184.5273
2022-10-20T20:31:57.381Z,174.3351
2022-10-20T20:36:59.039Z,219.3706
2022-10-20T20:42:00.742Z,224.94095
2022-10-20T20:47:02.384Z,231.6623
2022-10-20T20:52:03.958Z,231.2174
2022-10-20T20:57:05.610Z,337.76635
2022-10-20T21:02:07.312Z,323.54485
2022-10-20T21:07:08.940Z,297.53095
2022-10-20T21:17:12.241Z,253.7399
2022-10-20T21:22:13.859Z,323.24835
2022-10-20T21:27:15.461Z,545.28415
2022-10-20T21:32:17.057Z,512.81135
2022-10-20T21:37:18.689Z,210.12655
2022-10-20T21:42:20.314Z,245.67865
2022-10-20T21:47:21.969Z,284.1527
2022-10-20T21:52:23.583Z,394.71245
2022-10-20T21:57:25.320Z,466.82805
2022-10-20T22:02:26.933Z,395.60115
2022-10-20T22:07:28.672Z,387.95695
2022-10-20T22:12:30.424Z,380.72745
2022-10-20T22:17:32.056Z,379.9569
2022-10-20T22:22:33.725Z,401.34865
2022-10-20T22:27:42.308Z,396.4896
2022-10-20T22:32:44.391Z,193.29485
2022-10-20T22:37:45.996Z,135.99345
2022-10-20T22:42:47.683Z,147.69165
2022-10-20T22:47:49.282Z,140.32145
2022-10-20T22:52:50.895Z,326.8622
2022-10-20T22:57:52.591Z,330.9512
2022-10-20T23:02:54.309Z,306.47795
2022-10-20T23:07:55.949Z,183.02265
2022-10-20T23:12:57.819Z,158.82725
2022-10-20T23:17:59.461Z,164.67265
2022-10-20T23:23:01.125Z,144.8679
2022-10-20T23:28:02.837Z,118.1592
2022-10-20T23:33:04.636Z,115.101
2022-10-20T23:38:06.240Z,103.02045
2022-10-20T23:43:07.804Z,79.26625
2022-10-20T23:48:09.514Z,79.54385
2022-10-20T23:53:11.127Z,61.7282
2022-10-20T23:58:12.751Z,45.8652
